Time;durP1;ratioP1;P1;durP2;ratioP2;P2;SDS_P1;SDS_P2;PMS_P1;PMS_P2;Temp;Humidity;BMP_temperature;BMP_pressure;BME280_temperature;BME280_humidity;BME280_pressure;Samples;Min_cycle;Max_cycle;Signal;HPM_P1;HPM_P2
2022/01/13 00:01:55;;;;;;;9.98;5.57;;;;;;;-2.04;77.01;102657.97;5113038;28;20046;-76
2022/01/13 00:04:23;;;;;;;10.52;6.30;;;;;;;-2.22;78.08;102661.41;5094848;28;20067;-76
2022/01/13 00:06:51;;;;;;;11.40;6.15;;;;;;;-2.36;78.52;102661.81;5112987;28;20482;-76
2022/01/13 00:09:19;;;;;;;12.75;6.38;;;;;;;-2.43;79.53;102659.69;5112851;28;20051;-76
2022/01/13 00:11:49;;;;;;;10.55;6.45;;;;;;;-2.49;80.70;102662.94;5077793;28;20044;-76
2022/01/13 00:24:47;;;;;;;15.30;6.90;;;;;;;-2.46;81.09;102683.28;5111927;28;20048;-76
2022/01/13 00:27:16;;;;;;;14.75;7.13;;;;;;;-2.53;82.43;102682.16;5112481;28;20401;-76
2022/01/13 00:29:46;;;;;;;14.68;7.97;;;;;;;-2.56;82.83;102680.59;5112477;28;20038;-76
2022/01/13 00:32:16;;;;;;;15.50;7.32;;;;;;;-2.60;83.48;102673.81;5112152;28;20402;-76
2022/01/13 00:34:44;;;;;;;14.32;7.05;;;;;;;-2.66;84.51;102677.91;5112106;28;20070;-76
2022/01/13 00:37:12;;;;;;;18.73;7.97;;;;;;;-2.62;84.13;102689.19;5111887;28;20051;-76
2022/01/13 00:39:40;;;;;;;11.30;6.57;;;;;;;-2.51;82.76;102690.88;5112105;28;20044;-76
2022/01/13 00:42:08;;;;;;;14.30;7.03;;;;;;;-2.41;81.05;102691.75;5111893;28;20070;-76
2022/01/13 00:44:38;;;;;;;13.40;6.40;;;;;;;-2.20;79.48;102693.44;5112013;28;20509;-76
2022/01/13 00:47:09;;;;;;;14.88;6.53;;;;;;;-1.98;78.70;102692.28;5094348;28;20054;-76
2022/01/13 00:49:37;;;;;;;11.75;6.80;;;;;;;-2.05;79.71;102701.91;5112427;28;20048;-76
2022/01/13 00:52:05;;;;;;;14.90;6.75;;;;;;;-2.18;81.06;102702.19;5111763;28;20383;-76
2022/01/13 00:54:34;;;;;;;8.98;6.00;;;;;;;-2.14;79.05;102700.94;5112391;28;20043;-76
2022/01/13 00:57:02;;;;;;;10.30;5.95;;;;;;;-2.16;78.32;102701.06;5112163;28;20051;-76
2022/01/13 00:59:30;;;;;;;17.80;6.68;;;;;;;-1.98;77.99;102713.75;5111872;28;20062;-76
2022/01/13 01:01:58;;;;;;;15.63;6.75;;;;;;;-2.14;78.47;102730.44;5112116;28;20044;-76
2022/01/13 01:04:26;;;;;;;13.77;7.25;;;;;;;-2.25;78.65;102731.41;5111663;28;20047;-77
2022/01/13 01:06:54;;;;;;;11.88;6.70;;;;;;;-2.20;78.04;102731.00;5111397;28;20055;-76
2022/01/13 01:09:37;;;;;;;15.85;7.55;;;;;;;-2.14;77.77;102730.44;5112219;28;20035;-76
2022/01/13 01:12:07;;;;;;;14.30;7.38;;;;;;;-2.00;78.42;102731.84;5111722;28;20048;-76
2022/01/13 01:14:40;;;;;;;19.05;7.90;;;;;;;-2.17;78.32;102742.31;5093216;28;20055;-76
2022/01/13 01:17:08;;;;;;;17.92;7.63;;;;;;;-2.38;79.15;102738.91;5111700;28;20044;-76
2022/01/13 01:19:37;;;;;;;16.35;7.63;;;;;;;-2.57;80.58;102733.38;5111742;28;20052;-76
2022/01/13 01:22:43;;;;;;;18.08;8.15;;;;;;;-2.59;81.66;102726.47;5110798;28;20059;-75
2022/01/13 01:27:45;;;;;;;16.63;8.00;;;;;;;-2.46;82.56;102745.81;5111454;28;20043;-75
2022/01/13 01:32:50;;;;;;;15.52;7.93;;;;;;;-2.75;84.31;102741.22;5097599;28;20509;-76
2022/01/13 01:35:19;;;;;;;16.00;8.25;;;;;;;-2.82;84.84;102742.78;5111421;28;20062;-76
2022/01/13 01:37:47;;;;;;;16.38;8.15;;;;;;;-2.70;84.44;102752.41;5093645;28;20039;-76
2022/01/13 01:40:16;;;;;;;24.60;10.30;;;;;;;-2.66;84.52;102749.44;5111554;28;20055;-76
2022/01/13 01:42:46;;;;;;;18.58;8.57;;;;;;;-2.76;85.45;102742.22;5111454;28;20402;-76
2022/01/13 01:45:15;;;;;;;20.67;9.55;;;;;;;-2.86;86.45;102744.88;5111500;28;20054;-76
2022/01/13 01:47:44;;;;;;;14.55;8.45;;;;;;;-2.86;86.02;102757.41;5111880;28;20055;-76
2022/01/13 01:50:23;;;;;;;20.90;9.23;;;;;;;-2.98;86.91;102749.47;5110717;28;20062;-76
2022/01/13 01:52:53;;;;;;;14.68;8.43;;;;;;;-3.06;87.49;102761.84;5111512;28;20044;-76
2022/01/13 01:55:21;;;;;;;16.90;8.50;;;;;;;-3.11;87.75;102775.66;5111218;28;20040;-75
2022/01/13 01:57:54;;;;;;;16.35;8.27;;;;;;;-2.95;86.93;102777.00;5094852;28;20040;-76
2022/01/13 02:00:24;;;;;;;19.55;9.63;;;;;;;-3.04;87.69;102774.13;5096593;28;20051;-76
2022/01/13 02:02:55;;;;;;;18.67;9.50;;;;;;;-3.12;88.15;102780.16;5114821;28;20505;-76
2022/01/13 02:05:23;;;;;;;18.58;8.50;;;;;;;-3.19;87.65;102772.81;5114625;28;20046;-76
2022/01/13 02:07:51;;;;;;;13.98;8.32;;;;;;;-3.25;87.58;102777.72;5114304;28;20488;-76
2022/01/13 02:10:20;;;;;;;17.48;8.75;;;;;;;-3.20;88.24;102771.97;5113054;28;20047;-76
2022/01/13 02:12:51;;;;;;;17.83;8.70;;;;;;;-3.13;88.78;102783.00;5097757;28;20048;-76
2022/01/13 02:17:53;;;;;;;18.83;8.60;;;;;;;-3.24;88.84;102792.81;5108791;28;20047;-76
2022/01/13 02:20:21;;;;;;;12.20;7.43;;;;;;;-3.30;88.19;102798.69;5105252;28;20048;-76
2022/01/13 02:22:49;;;;;;;13.15;7.45;;;;;;;-3.33;88.56;102792.75;5114524;28;20055;-76
2022/01/13 02:25:17;;;;;;;15.20;7.90;;;;;;;-3.36;86.99;102780.47;5114564;28;20048;-76
2022/01/13 02:27:45;;;;;;;16.00;7.57;;;;;;;-3.37;86.23;102770.75;5114005;28;20047;-76
2022/01/13 02:30:15;;;;;;;15.18;7.55;;;;;;;-3.38;86.44;102761.00;5114326;28;20401;-75
2022/01/13 02:32:43;;;;;;;13.43;6.82;;;;;;;-3.40;86.94;102771.88;5114931;28;20036;-75
2022/01/13 02:35:11;;;;;;;13.82;7.55;;;;;;;-3.41;86.88;102763.97;5114063;28;20058;-76
2022/01/13 02:37:39;;;;;;;17.33;8.23;;;;;;;-3.28;86.72;102771.78;5114936;28;20409;-76
2022/01/13 02:40:08;;;;;;;14.15;7.00;;;;;;;-3.25;86.05;102780.41;5113742;28;20047;-76
2022/01/13 02:42:36;;;;;;;13.00;7.15;;;;;;;-3.24;86.01;102781.25;5114154;28;20048;-76
2022/01/13 02:45:14;;;;;;;14.02;7.53;;;;;;;-3.24;86.74;102776.75;5114335;28;20051;-76
2022/01/13 02:50:11;;;;;;;11.68;7.53;;;;;;;-2.90;85.61;102777.44;5114118;28;20052;-76
2022/01/13 02:52:39;;;;;;;12.55;7.22;;;;;;;-2.69;83.40;102774.66;5114021;28;20050;-75
2022/01/13 02:55:09;;;;;;;15.80;7.50;;;;;;;-2.85;83.85;102770.69;5113501;28;20044;-75
2022/01/13 02:57:39;;;;;;;20.30;8.13;;;;;;;-2.93;83.40;102758.97;5113887;28;20044;-76
2022/01/13 03:00:08;;;;;;;16.83;8.00;;;;;;;-2.72;83.84;102764.25;5113995;28;20047;-76
2022/01/13 03:02:36;;;;;;;14.40;7.90;;;;;;;-2.59;83.84;102767.50;5113703;28;20051;-76
2022/01/13 03:05:11;;;;;;;15.68;8.20;;;;;;;-2.53;83.92;102773.31;5113763;28;20133;-76
2022/01/13 03:07:39;;;;;;;15.98;8.77;;;;;;;-2.62;84.75;102772.31;5113746;28;20478;-76
2022/01/13 03:10:09;;;;;;;17.83;8.93;;;;;;;-2.94;84.26;102776.84;5095207;28;20047;-76
2022/01/13 03:12:41;;;;;;;17.02;8.90;;;;;;;-3.17;84.75;102777.03;5113477;28;20043;-76
2022/01/13 03:15:09;;;;;;;14.25;7.85;;;;;;;-3.35;86.03;102781.31;5113291;28;20410;-76
2022/01/13 03:17:37;;;;;;;13.38;7.65;;;;;;;-3.45;87.06;102778.59;5113277;28;20498;-76
2022/01/13 03:20:06;;;;;;;18.05;8.02;;;;;;;-3.51;86.66;102775.44;5095716;28;20051;-76
2022/01/13 03:22:34;;;;;;;15.68;8.85;;;;;;;-3.54;87.46;102786.44;5113794;28;20095;-76
2022/01/13 03:25:03;;;;;;;16.23;8.77;;;;;;;-3.57;88.26;102784.00;5113507;28;20493;-76
2022/01/13 03:27:34;;;;;;;17.58;8.63;;;;;;;-3.48;88.06;102790.41;5112875;28;20066;-76
2022/01/13 03:30:06;;;;;;;18.23;7.55;;;;;;;-3.48;87.95;102790.41;5113189;28;20047;-75
2022/01/13 03:32:36;;;;;;;15.15;7.50;;;;;;;-3.42;86.71;102799.75;5129635;27;20055;-76
2022/01/13 03:35:06;;;;;;;17.42;7.43;;;;;;;-3.48;86.48;102800.28;5112719;28;20402;-75
2022/01/13 03:37:34;;;;;;;14.45;7.45;;;;;;;-3.49;85.62;102798.59;5112626;28;20062;-76
2022/01/13 03:40:03;;;;;;;12.18;6.82;;;;;;;-3.56;84.87;102792.91;5112746;28;20494;-75
2022/01/13 03:42:31;;;;;;;17.50;7.43;;;;;;;-3.59;84.23;102793.16;5113539;28;20059;-76
2022/01/13 03:45:00;;;;;;;11.85;6.45;;;;;;;-3.58;84.25;102789.50;5094294;28;20047;-75
2022/01/13 03:47:28;;;;;;;12.13;7.00;;;;;;;-3.63;84.85;102794.41;5113512;28;20044;-76
2022/01/13 03:49:56;;;;;;;13.10;7.03;;;;;;;-3.69;83.57;102804.66;5113021;28;20044;-76
2022/01/13 03:52:30;;;;;;;17.77;7.20;;;;;;;-3.63;84.31;102813.97;5113538;28;20042;-76
2022/01/13 03:55:25;;;;;;;13.50;7.13;;;;;;;-3.67;83.51;102809.88;5112856;28;20493;-76
2022/01/13 03:58:26;;;;;;;14.10;7.38;;;;;;;-3.60;83.76;102804.84;5106919;28;20051;-76
2022/01/13 04:01:12;;;;;;;15.90;7.75;;;;;;;-3.65;83.80;102800.72;5112766;28;20079;-75
2022/01/13 04:03:41;;;;;;;14.98;7.85;;;;;;;-3.68;85.02;102802.81;5113403;28;20051;-76
2022/01/13 04:06:40;;;;;;;15.15;7.15;;;;;;;-3.74;85.61;102808.69;5095003;28;20047;-76
2022/01/13 04:09:23;;;;;;;17.73;6.93;;;;;;;-3.63;84.34;102813.97;5112434;28;20398;-76
2022/01/13 04:11:52;;;;;;;16.27;7.25;;;;;;;-3.64;83.96;102817.63;5112357;28;20043;-75
2022/01/13 04:14:28;;;;;;;18.58;7.45;;;;;;;-3.57;84.00;102809.94;5112285;28;20406;-76
2022/01/13 04:16:56;;;;;;;13.70;7.20;;;;;;;-3.17;84.04;102819.88;5112077;28;20055;-76
2022/01/13 04:19:24;;;;;;;12.70;7.95;;;;;;;-3.10;83.18;102822.91;5112585;28;20063;-76
2022/01/13 04:21:52;;;;;;;13.93;8.27;;;;;;;-3.33;84.07;102817.69;5112662;28;20035;-76
2022/01/13 04:24:20;;;;;;;11.93;7.15;;;;;;;-3.38;83.96;102822.59;5111853;28;20055;-76
2022/01/13 04:26:48;;;;;;;17.15;8.25;;;;;;;-3.48;84.73;102821.69;5111946;28;20054;-76
2022/01/13 04:29:21;;;;;;;13.93;7.85;;;;;;;-3.58;84.94;102830.50;5112750;28;20043;-75
2022/01/13 04:31:50;;;;;;;16.95;7.65;;;;;;;-3.60;85.73;102829.78;5112261;28;20544;-76
2022/01/13 04:34:19;;;;;;;19.00;7.70;;;;;;;-3.73;83.85;102829.13;5097750;28;20055;-76
2022/01/13 04:36:49;;;;;;;12.40;6.72;;;;;;;-3.80;84.45;102826.09;5105455;28;20494;-75
2022/01/13 04:39:17;;;;;;;14.43;7.32;;;;;;;-3.79;85.49;102830.47;5108143;28;20501;-75
2022/01/13 04:41:47;;;;;;;13.40;6.47;;;;;;;-3.53;83.08;102833.63;5104240;28;20035;-76
2022/01/13 04:44:19;;;;;;;15.77;7.32;;;;;;;-3.44;83.49;102829.34;5111576;28;20048;-76
2022/01/13 04:46:49;;;;;;;13.32;6.78;;;;;;;-3.43;84.23;102835.53;5111590;28;20051;-76
2022/01/13 04:49:19;;;;;;;13.85;6.05;;;;;;;-3.59;82.19;102834.16;5111927;28;20062;-76
2022/01/13 04:51:49;;;;;;;12.63;5.78;;;;;;;-3.69;81.63;102835.91;5112410;28;20058;-76
2022/01/13 04:54:17;;;;;;;9.90;5.75;;;;;;;-3.60;81.62;102843.16;5111870;28;20048;-76
2022/01/13 04:59:19;;;;;;;;;;;;;;;-3.74;82.10;102841.66;5112431;28;20048;-76
2022/01/13 05:01:47;;;;;;;9.52;5.78;;;;;;;-3.76;82.18;102840.06;5111608;28;19925;-75
2022/01/13 05:04:15;;;;;;;13.98;6.20;;;;;;;-3.79;82.47;102831.34;5112119;28;20047;-75
2022/01/13 05:06:43;;;;;;;12.68;5.70;;;;;;;-3.79;82.91;102835.84;5112247;28;20043;-75
2022/01/13 05:09:11;;;;;;;9.38;4.93;;;;;;;-3.83;83.24;102831.69;5111456;28;20498;-75
2022/01/13 05:11:39;;;;;;;12.93;6.00;;;;;;;-3.86;83.41;102834.66;5093897;28;20051;-75
2022/01/13 05:14:07;;;;;;;11.60;6.15;;;;;;;-3.91;84.36;102827.03;5093517;28;20051;-75
2022/01/13 05:16:51;;;;;;;10.02;5.55;;;;;;;-3.93;83.68;102828.94;5111721;28;20055;-75
2022/01/13 05:19:25;;;;;;;14.07;6.38;;;;;;;-3.95;82.17;102828.25;5094142;28;20063;-75
2022/01/13 05:22:15;;;;;;;15.23;5.72;;;;;;;-3.95;82.32;102829.06;5111299;28;20043;-75
2022/01/13 05:24:49;;;;;;;15.15;5.72;;;;;;;-3.95;82.27;102841.63;5108652;28;20055;-75
2022/01/13 05:27:19;;;;;;;12.05;6.20;;;;;;;-3.82;81.51;102830.75;5112110;28;20047;-75
2022/01/13 05:29:47;;;;;;;8.32;5.22;;;;;;;-3.57;80.43;102832.19;5111315;28;20043;-75
2022/01/13 05:32:15;;;;;;;12.18;5.45;;;;;;;-3.66;81.29;102825.78;5112221;28;20046;-75
2022/01/13 05:34:43;;;;;;;9.50;5.70;;;;;;;-3.70;81.85;102835.06;5097714;28;20035;-74
2022/01/13 05:37:11;;;;;;;11.15;6.03;;;;;;;-3.83;80.85;102842.41;5115680;28;20094;-75
2022/01/13 05:39:39;;;;;;;11.38;5.20;;;;;;;-3.91;80.64;102840.41;5114017;28;20040;-74
2022/01/13 05:42:07;;;;;;;9.73;5.25;;;;;;;-3.99;81.08;102848.19;5097064;28;20055;-75
2022/01/13 05:44:38;;;;;;;9.65;5.30;;;;;;;-4.02;81.24;102846.59;5115671;28;20040;-74
2022/01/13 05:47:09;;;;;;;9.30;4.95;;;;;;;-3.99;81.73;102835.66;5108911;28;20044;-74
2022/01/13 05:49:40;;;;;;;10.82;4.93;;;;;;;-3.91;82.33;102848.41;5104280;28;20047;-75
2022/01/13 05:52:10;;;;;;;9.88;5.18;;;;;;;-3.87;82.07;102846.34;5112192;28;20048;-74
2022/01/13 05:54:38;;;;;;;8.10;5.25;;;;;;;-3.86;81.30;102846.19;5114998;28;20050;-75
2022/01/13 05:57:07;;;;;;;10.85;5.03;;;;;;;-3.89;81.42;102850.94;5114367;28;20078;-74
2022/01/13 05:59:36;;;;;;;12.55;5.88;;;;;;;-3.94;81.53;102846.84;5115043;28;20039;-74
2022/01/13 06:02:05;;;;;;;10.48;4.82;;;;;;;-3.99;81.60;102842.84;5114663;28;20056;-75
2022/01/13 06:04:33;;;;;;;10.65;4.80;;;;;;;-3.98;81.51;102853.41;5114442;28;20043;-74
2022/01/13 06:07:01;;;;;;;9.65;5.40;;;;;;;-3.91;82.25;102853.78;5114277;28;20051;-73
2022/01/13 06:09:29;;;;;;;10.25;5.25;;;;;;;-3.93;82.47;102861.06;5096384;28;20055;-77
2022/01/13 06:12:01;;;;;;;10.73;5.72;;;;;;;-3.90;82.91;102866.16;5114849;28;20051;-76
2022/01/13 06:14:29;;;;;;;11.82;5.38;;;;;;;-3.94;81.62;102860.22;5115040;28;20066;-77
2022/01/13 06:16:57;;;;;;;8.75;5.38;;;;;;;-3.95;81.17;102868.38;5109841;28;20040;-78
2022/01/13 06:19:25;;;;;;;10.02;5.50;;;;;;;-3.88;82.48;102885.59;5114381;28;20508;-77
2022/01/13 06:21:53;;;;;;;7.25;4.05;;;;;;;-3.69;84.13;102894.78;5115352;28;20047;-78
2022/01/13 06:24:21;;;;;;;10.13;5.43;;;;;;;-3.47;82.07;102903.72;5096464;28;20051;-81
2022/01/13 06:26:49;;;;;;;8.07;4.70;;;;;;;-3.57;80.68;102906.31;5113703;28;20498;-82
2022/01/13 06:29:17;;;;;;;15.00;5.47;;;;;;;-3.69;80.66;102900.13;5113668;28;20040;-81
2022/01/13 06:31:45;;;;;;;9.73;5.03;;;;;;;-3.81;81.02;102907.38;5114798;28;20474;-81
2022/01/13 06:34:13;;;;;;;9.63;5.28;;;;;;;-3.89;81.27;102908.00;5114469;28;20383;-81
2022/01/13 06:36:41;;;;;;;10.40;5.82;;;;;;;-3.94;82.41;102907.50;5114310;28;20051;-81
2022/01/13 06:39:09;;;;;;;13.68;6.13;;;;;;;-3.76;84.28;102904.31;5096132;28;20047;-75
2022/01/13 06:41:39;;;;;;;13.82;6.95;;;;;;;-3.82;82.51;102901.16;5113900;28;20101;-78
2022/01/13 06:44:07;;;;;;;14.02;6.18;;;;;;;-3.86;81.45;102882.81;5113719;28;20059;-78
2022/01/13 06:46:35;;;;;;;9.05;5.55;;;;;;;-3.90;81.00;102866.16;5114069;28;20040;-78
2022/01/13 06:49:03;;;;;;;10.90;5.05;;;;;;;-3.91;82.37;102876.00;5095889;28;20047;-77
2022/01/13 06:51:33;;;;;;;11.40;5.30;;;;;;;-3.92;82.90;102878.78;5113650;28;20047;-77
2022/01/13 06:54:02;;;;;;;8.35;5.13;;;;;;;-3.84;82.53;102897.75;5113695;28;20513;-78
2022/01/13 06:56:30;;;;;;;12.50;5.65;;;;;;;-3.83;82.64;102904.81;5113401;28;20079;-78
2022/01/13 06:58:59;;;;;;;7.78;4.80;;;;;;;-3.82;81.08;102900.31;5114027;28;20051;-78
2022/01/13 07:01:27;;;;;;;8.40;5.53;;;;;;;-3.82;81.58;102906.50;5113586;28;20132;-78
2022/01/13 07:03:55;;;;;;;8.02;4.40;;;;;;;-3.79;82.02;102916.09;5099909;28;20044;-78
2022/01/13 07:06:23;;;;;;;12.93;5.60;;;;;;;-3.79;82.54;102918.78;5096233;28;20059;-79
2022/01/13 07:08:51;;;;;;;10.18;5.70;;;;;;;-3.81;83.01;102913.56;5114302;28;20051;-78
2022/01/13 07:11:19;;;;;;;14.95;6.50;;;;;;;-3.82;83.22;102927.91;5114555;28;20040;-78
2022/01/13 07:13:47;;;;;;;8.77;5.38;;;;;;;-3.83;83.29;102946.75;5113704;28;20493;-78
2022/01/13 07:16:14;;;;;;;16.15;5.78;;;;;;;-3.82;83.46;102943.13;5095874;28;20054;-78
2022/01/13 07:18:42;;;;;;;10.65;5.72;;;;;;;-3.76;83.97;102941.78;5113709;28;20070;-79
2022/01/13 07:21:18;;;;;;;12.07;6.07;;;;;;;-3.71;82.25;102926.19;5114363;28;20043;-78
2022/01/13 07:23:47;;;;;;;12.88;6.10;;;;;;;-3.57;79.51;102925.88;5113545;28;20558;-78
2022/01/13 07:26:15;;;;;;;14.75;7.18;;;;;;;-3.39;79.24;102928.88;5114036;28;20055;-78
2022/01/13 07:28:43;;;;;;;14.68;6.90;;;;;;;-3.25;78.69;102930.38;5095685;28;20051;-78
2022/01/13 07:31:14;;;;;;;13.80;7.00;;;;;;;-3.07;77.72;102940.53;5119736;28;20482;-79
2022/01/13 07:33:43;;;;;;;16.20;6.05;;;;;;;-2.90;75.76;102938.22;5127878;28;20056;-77
2022/01/13 07:36:11;;;;;;;13.02;6.53;;;;;;;-2.70;75.08;102942.72;5128823;28;20058;-78
2022/01/13 07:38:39;;;;;;;14.65;6.93;;;;;;;-2.48;75.47;102951.59;5113141;28;20129;-78
2022/01/13 07:41:07;;;;;;;11.48;6.70;;;;;;;-2.38;73.49;102953.44;5112655;28;20039;-78
2022/01/13 07:43:35;;;;;;;12.70;6.95;;;;;;;-2.22;75.62;102959.16;5113476;28;20058;-78
2022/01/13 07:46:03;;;;;;;17.95;6.88;;;;;;;-2.03;74.29;102952.16;5112989;28;20051;-78
2022/01/13 07:48:31;;;;;;;12.57;6.38;;;;;;;-1.85;73.06;102964.91;5112832;28;20410;-78
2022/01/13 07:50:59;;;;;;;15.88;7.03;;;;;;;-1.66;72.76;102970.31;5094820;28;20048;-78
2022/01/13 07:53:27;;;;;;;14.80;7.20;;;;;;;-1.65;71.33;102969.31;5112855;28;20040;-78
2022/01/13 07:55:55;;;;;;;14.68;7.63;;;;;;;-1.64;70.36;102967.50;5094110;28;20043;-78
2022/01/13 07:58:23;;;;;;;11.63;7.18;;;;;;;-1.55;71.65;102963.13;5112444;28;20509;-78
2022/01/13 08:00:51;;;;;;;17.80;7.47;;;;;;;-1.38;71.26;102980.38;5113244;28;20031;-78
2022/01/13 08:03:19;;;;;;;13.68;7.20;;;;;;;-1.15;70.83;102983.66;5113066;28;20505;-78
2022/01/13 08:05:47;;;;;;;17.90;8.85;;;;;;;-1.13;69.84;102978.97;5113106;28;20058;-79
2022/01/13 08:08:15;;;;;;;15.27;7.97;;;;;;;-1.08;70.58;102973.16;5112489;28;20066;-78
2022/01/13 08:10:43;;;;;;;15.48;8.43;;;;;;;-1.02;69.63;102977.16;5112284;28;20048;-79
2022/01/13 08:13:11;;;;;;;15.43;8.13;;;;;;;-1.00;69.05;102976.00;5113027;28;20051;-79
2022/01/13 08:15:40;;;;;;;17.25;8.10;;;;;;;-0.86;68.71;102981.94;5111789;28;20047;-78
2022/01/13 08:20:54;;;;;;;17.45;8.60;;;;;;;-0.45;67.60;103005.91;5112507;28;20043;-78
2022/01/13 08:23:22;;;;;;;17.58;8.48;;;;;;;-0.37;66.84;102999.78;5112426;28;20058;-78
2022/01/13 08:25:50;;;;;;;17.70;8.88;;;;;;;-0.24;66.59;103012.94;5112014;28;20121;-78
2022/01/13 08:28:18;;;;;;;15.85;8.73;;;;;;;-0.07;66.36;103025.63;5112544;28;20490;-78
2022/01/13 08:30:47;;;;;;;24.25;11.02;;;;;;;-0.05;63.92;103015.53;5111996;28;20048;-77
2022/01/13 08:33:15;;;;;;;19.95;9.57;;;;;;;0.10;63.51;103021.28;5112235;28;20110;-77
2022/01/13 08:35:44;;;;;;;20.27;9.68;;;;;;;0.31;65.09;103019.31;5094151;28;20060;-78
2022/01/13 08:38:19;;;;;;;16.60;8.57;;;;;;;0.66;61.81;103020.38;5111986;28;20051;-78
2022/01/13 08:40:49;;;;;;;18.75;8.45;;;;;;;0.79;61.87;103020.00;5111996;28;20047;-78
2022/01/13 08:43:17;;;;;;;26.95;10.00;;;;;;;0.85;61.86;103019.41;5111955;28;20051;-78
2022/01/13 08:45:45;;;;;;;17.77;8.70;;;;;;;1.22;60.29;103024.75;5111447;28;20043;-78
2022/01/13 08:48:14;;;;;;;19.88;8.05;;;;;;;1.57;60.20;103029.22;5111485;28;20056;-78
2022/01/13 08:50:42;;;;;;;25.90;9.10;;;;;;;1.72;58.17;103031.34;5111852;28;20052;-78
2022/01/13 08:53:10;;;;;;;22.55;9.45;;;;;;;1.77;58.72;103036.25;5111539;28;20066;-78
2022/01/13 08:55:38;;;;;;;23.63;9.50;;;;;;;2.01;58.44;103038.25;5111014;28;20055;-78
2022/01/13 08:58:06;;;;;;;22.80;10.57;;;;;;;2.27;59.04;103027.38;5111769;28;20517;-79
2022/01/13 09:00:36;;;;;;;21.38;10.43;;;;;;;2.75;57.48;103023.25;5112322;28;20048;-79
2022/01/13 09:03:08;;;;;;;19.45;10.07;;;;;;;3.16;59.83;103023.28;5112059;28;20043;-78
2022/01/13 09:05:37;;;;;;;17.40;9.73;;;;;;;3.39;57.95;103032.56;5111776;28;20047;-79
2022/01/13 09:08:07;;;;;;;19.38;8.75;;;;;;;2.69;58.05;103025.63;5114368;28;20054;-79
2022/01/13 09:10:39;;;;;;;18.67;9.07;;;;;;;2.84;58.89;103024.13;5115471;28;20051;-79
2022/01/13 09:13:14;;;;;;;17.02;8.95;;;;;;;2.91;58.77;103031.41;5116280;28;20039;-79
2022/01/13 09:15:51;;;;;;;20.40;11.02;;;;;;;3.03;58.36;103028.38;5115540;28;20048;-79
2022/01/13 09:18:31;;;;;;;20.35;11.13;;;;;;;3.32;57.12;103021.59;5116425;28;20055;-79
2022/01/13 09:21:04;;;;;;;20.05;10.45;;;;;;;3.86;55.82;103028.25;5115369;28;20051;-79
2022/01/13 09:23:36;;;;;;;20.67;10.13;;;;;;;3.81;56.73;103028.75;5116255;28;20051;-80
2022/01/13 09:26:04;;;;;;;25.95;11.75;;;;;;;4.10;57.33;103034.63;5115303;28;20055;-79
2022/01/13 09:28:34;;;;;;;23.60;11.05;;;;;;;4.45;56.71;103029.66;5115592;28;20043;-79
2022/01/13 09:31:02;;;;;;;20.15;11.73;;;;;;;4.68;54.71;103028.88;5115065;28;20047;-79
2022/01/13 09:33:30;;;;;;;24.35;12.90;;;;;;;4.71;53.37;103023.91;5115157;28;20050;-79
2022/01/13 09:35:59;;;;;;;29.35;13.27;;;;;;;4.67;53.58;103029.91;5115196;28;20040;-78
2022/01/13 09:38:27;;;;;;;27.33;12.82;;;;;;;4.57;55.96;103041.84;5115900;28;20056;-79
2022/01/13 09:40:56;;;;;;;22.48;13.88;;;;;;;5.04;54.61;103035.56;5115832;28;20054;-79
2022/01/13 09:43:26;;;;;;;25.17;13.07;;;;;;;5.21;53.10;103036.28;5115137;28;20048;-79
2022/01/13 09:45:58;;;;;;;21.85;12.23;;;;;;;5.35;53.27;103038.19;5115832;28;20043;-79
2022/01/13 09:48:28;;;;;;;26.25;11.38;;;;;;;5.10;53.02;103051.13;5097476;28;20067;-79
2022/01/13 09:50:56;;;;;;;22.35;11.50;;;;;;;5.27;52.38;103046.41;5115649;28;20524;-80
2022/01/13 09:53:24;;;;;;;18.77;11.43;;;;;;;5.32;53.91;103043.97;5115192;28;20048;-80
2022/01/13 09:55:51;;;;;;;17.40;10.00;;;;;;;5.24;51.63;103046.78;5114825;28;20044;-79
2022/01/13 09:58:20;;;;;;;21.10;10.35;;;;;;;5.42;51.51;103045.63;5115072;28;20382;-78
2022/01/13 10:00:48;;;;;;;25.15;11.50;;;;;;;5.42;52.10;103043.72;5114122;28;20058;-78
2022/01/13 10:03:25;;;;;;;20.67;11.05;;;;;;;5.66;50.50;103044.50;5114582;28;20047;-78
2022/01/13 10:06:07;;;;;;;27.05;12.18;;;;;;;5.94;50.34;103043.00;5115562;28;20035;-80
2022/01/13 10:08:54;;;;;;;27.08;13.25;;;;;;;6.02;49.23;103045.66;5119810;28;20051;-80
2022/01/13 10:11:40;;;;;;;30.45;14.13;;;;;;;6.04;51.17;103046.34;5124292;28;20047;-79
2022/01/13 10:16:23;;;;;;;32.35;14.50;;;;;;;6.05;50.54;103042.56;5115479;28;20382;-79
2022/01/13 10:17:14;;;;;;;26.98;13.13;;;;;;;5.59;48.85;103036.28;5114657;28;20059;-79
2022/01/13 10:19:45;;;;;;;23.63;11.55;;;;;;;6.17;50.10;103038.34;5114230;28;20513;-78
2022/01/13 10:22:24;;;;;;;18.67;10.70;;;;;;;6.27;48.39;103039.94;5114373;28;20528;-78
2022/01/13 10:24:55;;;;;;;20.30;10.52;;;;;;;6.15;47.24;103032.25;5114159;28;20379;-78
2022/01/13 10:27:29;;;;;;;20.23;11.25;;;;;;;6.39;47.51;103027.53;5115034;28;20054;-79
2022/01/13 10:30:04;;;;;;;18.00;10.60;;;;;;;5.90;46.95;103024.38;5114302;28;20062;-79
2022/01/13 10:32:37;;;;;;;21.52;10.38;;;;;;;6.40;46.89;103029.22;5095715;28;20055;-79
2022/01/13 10:35:12;;;;;;;18.40;9.90;;;;;;;6.77;44.65;103023.75;5114434;28;20054;-79
2022/01/13 10:37:42;;;;;;;23.27;10.27;;;;;;;6.32;45.10;103013.00;5114495;28;20047;-78
2022/01/13 10:40:31;;;;;;;16.95;9.35;;;;;;;6.51;46.62;103021.59;5114110;28;20074;-78
2022/01/13 10:45:33;;;;;;;16.35;8.85;;;;;;;6.32;47.76;103016.56;5114294;28;20056;-79
2022/01/13 10:48:12;;;;;;;15.95;9.77;;;;;;;6.55;47.88;103025.63;5113913;28;20043;-79
2022/01/13 10:50:57;;;;;;;20.67;9.68;;;;;;;6.54;46.47;103029.34;5114113;28;20097;-78
2022/01/13 10:53:34;;;;;;;14.40;9.18;;;;;;;6.76;47.50;103010.34;5114342;28;20390;-78
2022/01/13 10:56:10;;;;;;;20.33;9.48;;;;;;;6.61;46.62;103013.97;5114221;28;20040;-79
2022/01/13 10:59:02;;;;;;;20.73;9.93;;;;;;;6.38;45.77;103004.09;5114150;28;20039;-78
2022/01/13 11:01:34;;;;;;;19.17;9.50;;;;;;;6.53;47.79;103008.63;5113788;28;20486;-79
2022/01/13 11:04:14;;;;;;;19.13;10.55;;;;;;;6.66;45.66;103006.06;5101021;28;20071;-79
2022/01/13 11:06:42;;;;;;;18.10;9.88;;;;;;;6.65;44.68;103003.53;5113350;28;20051;-78
2022/01/13 11:09:16;;;;;;;16.40;10.27;;;;;;;6.79;45.88;102999.06;5113702;28;20059;-79
2022/01/13 11:11:46;;;;;;;20.85;10.30;;;;;;;6.93;46.61;102984.53;5113751;28;20055;-78
2022/01/13 11:14:24;;;;;;;21.25;10.65;;;;;;;7.26;45.75;102983.97;5096001;28;20043;-78
2022/01/13 11:16:52;;;;;;;18.70;9.93;;;;;;;7.10;45.91;102990.53;5113273;28;20046;-79
2022/01/13 11:19:20;;;;;;;14.55;8.90;;;;;;;7.29;46.80;102987.34;5113791;28;20040;-74
2022/01/13 11:21:49;;;;;;;18.55;9.73;;;;;;;7.04;45.36;102985.06;5112863;28;20044;-76
2022/01/13 11:24:19;;;;;;;17.50;9.75;;;;;;;7.01;44.23;102971.81;5113475;28;20052;-74
2022/01/13 11:26:47;;;;;;;72.38;30.88;;;;;;;7.12;45.11;102972.13;5112923;28;20044;-75
2022/01/13 11:29:17;;;;;;;69.15;31.00;;;;;;;7.22;46.35;102974.50;5112569;28;20043;-75
2022/01/13 11:31:45;;;;;;;24.38;13.43;;;;;;;6.86;45.69;102978.19;5112904;28;20052;-75
2022/01/13 11:34:16;;;;;;;24.77;12.75;;;;;;;7.02;46.72;102970.78;5112886;28;20047;-75
2022/01/13 11:36:45;;;;;;;50.72;27.52;;;;;;;7.10;45.75;102957.84;5113539;28;20042;-75
2022/01/13 11:39:13;;;;;;;25.10;13.20;;;;;;;7.47;44.39;102965.88;5112398;28;20059;-75
2022/01/13 11:42:01;;;;;;;26.08;12.73;;;;;;;7.65;44.85;102956.34;5112880;28;20139;-75
2022/01/13 11:44:29;;;;;;;22.08;10.23;;;;;;;7.86;43.36;102957.28;5112219;28;20048;-75
2022/01/13 11:46:57;;;;;;;20.20;11.15;;;;;;;7.92;43.66;102951.84;5112680;28;20101;-75
2022/01/13 11:52:13;;;;;;;18.20;9.60;;;;;;;7.77;43.40;102957.44;5112240;28;20050;-75
2022/01/13 11:54:42;;;;;;;22.25;10.88;;;;;;;7.27;45.46;102957.56;5094684;28;20058;-75
2022/01/13 11:57:36;;;;;;;17.90;9.85;;;;;;;7.35;44.73;102956.59;5101770;28;20044;-75
2022/01/13 12:00:06;;;;;;;19.15;10.57;;;;;;;7.18;45.12;102965.03;5112411;28;20055;-75
2022/01/13 12:02:42;;;;;;;17.92;9.63;;;;;;;7.34;44.89;102963.06;5112008;28;20074;-75
2022/01/13 12:05:17;;;;;;;19.75;10.55;;;;;;;7.11;45.83;102969.59;5112357;28;20058;-75
2022/01/13 12:07:48;;;;;;;18.15;9.48;;;;;;;7.11;44.55;102966.88;5112408;28;20051;-75